地図

経路データ

SID SEASON NUMBER BASIN SUBBASIN NAME ISO_TIME NATURE LAT LON WMO_WIND WMO_PRES WMO_AGENCY TRACK_TYPE DIST2LAND LANDFALL IFLAG USA_AGENCY USA_ATCF_ID USA_LAT USA_LON USA_RECORD USA_STATUS USA_WIND USA_PRES USA_SSHS USA_R34_NE USA_R34_SE USA_R34_SW USA_R34_NW USA_R50_NE USA_R50_SE USA_R50_SW USA_R50_NW USA_R64_NE USA_R64_SE USA_R64_SW USA_R64_NW USA_POCI USA_ROCI USA_RMW USA_EYE TOKYO_LAT TOKYO_LON TOKYO_GRADE TOKYO_WIND TOKYO_PRES TOKYO_R50_DIR TOKYO_R50_LONG TOKYO_R50_SHORT TOKYO_R30_DIR TOKYO_R30_LONG TOKYO_R30_SHORT TOKYO_LAND CMA_LAT CMA_LON CMA_CAT CMA_WIND CMA_PRES HKO_LAT HKO_LON HKO_CAT HKO_WIND HKO_PRES NEWDELHI_LAT NEWDELHI_LON NEWDELHI_GRADE NEWDELHI_WIND NEWDELHI_PRES NEWDELHI_CI NEWDELHI_DP NEWDELHI_POCI REUNION_LAT REUNION_LON REUNION_TYPE REUNION_WIND REUNION_PRES REUNION_TNUM REUNION_CI REUNION_RMW REUNION_R34_NE REUNION_R34_SE REUNION_R34_SW REUNION_R34_NW REUNION_R50_NE REUNION_R50_SE REUNION_R50_SW REUNION_R50_NW REUNION_R64_NE REUNION_R64_SE REUNION_R64_SW REUNION_R64_NW BOM_LAT BOM_LON BOM_TYPE BOM_WIND BOM_PRES BOM_TNUM BOM_CI BOM_RMW BOM_R34_NE BOM_R34_SE BOM_R34_SW BOM_R34_NW BOM_R50_NE BOM_R50_SE BOM_R50_SW BOM_R50_NW BOM_R64_NE BOM_R64_SE BOM_R64_SW BOM_R64_NW BOM_ROCI BOM_POCI BOM_EYE BOM_POS_METHOD BOM_PRES_METHOD NADI_LAT NADI_LON NADI_CAT NADI_WIND NADI_PRES WELLINGTON_LAT WELLINGTON_LON WELLINGTON_WIND WELLINGTON_PRES DS824_LAT DS824_LON DS824_STAGE DS824_WIND DS824_PRES TD9636_LAT TD9636_LON TD9636_STAGE TD9636_WIND TD9636_PRES TD9635_LAT TD9635_LON TD9635_WIND TD9635_PRES TD9635_ROCI NEUMANN_LAT NEUMANN_LON NEUMANN_CLASS NEUMANN_WIND NEUMANN_PRES MLC_LAT MLC_LON MLC_CLASS MLC_WIND MLC_PRES USA_GUST BOM_GUST BOM_GUST_PER REUNION_GUST REUNION_GUST_PER USA_SEAHGT USA_SEARAD_NE USA_SEARAD_SE USA_SEARAD_SW USA_SEARAD_NW STORM_SPEED STORM_DIR
1949276N24303 1949 89 NA NA NOT_NAMED 1949-10-02 18:00:00 TS 24.0000 -56.8000 35 hurdat_atl main 1105 1105 O_____________ hurdat_atl AL121949 24.0000 -56.8000 TS 35 0 10 0
1949276N24303 1949 89 NA NA NOT_NAMED 1949-10-02 21:00:00 TS 24.5025 -56.8075 main 1137 1137 P_____________ AL121949 24.5025 -56.8075 TS 35 0 10 1
1949276N24303 1949 89 NA NA NOT_NAMED 1949-10-03 00:00:00 TS 25.0000 -56.8000 35 hurdat_atl main 1170 1170 O_____________ hurdat_atl AL121949 25.0000 -56.8000 TS 35 0 10 2
1949276N24303 1949 89 NA NA NOT_NAMED 1949-10-03 03:00:00 TS 25.4800 -56.7650 main 1204 1204 P_____________ AL121949 25.4800 -56.7650 TS 35 0 9 5
1949276N24303 1949 89 NA NA NOT_NAMED 1949-10-03 06:00:00 TS 25.9000 -56.7000 35 hurdat_atl main 1241 1241 O_____________ hurdat_atl AL121949 25.9000 -56.7000 TS 35 0 8 11
1949276N24303 1949 89 NA NA NOT_NAMED 1949-10-03 09:00:00 TS 26.2450 -56.6075 main 1270 1270 P_____________ AL121949 26.2450 -56.6075 TS 37 0 6 17
1949276N24303 1949 89 NA NA NOT_NAMED 1949-10-03 12:00:00 TS 26.5000 -56.5000 40 hurdat_atl main 1300 1300 O_____________ hurdat_atl AL121949 26.5000 -56.5000 TS 40 0 5 22
1949276N24303 1949 89 NA NA NOT_NAMED 1949-10-03 15:00:00 TS 26.6950 -56.4000 main 1322 1322 P_____________ AL121949 26.6950 -56.4000 TS 40 0 4 30
1949276N24303 1949 89 NA NA NOT_NAMED 1949-10-03 18:00:00 TS 26.8000 -56.3000 40 hurdat_atl main 1337 1337 O_____________ hurdat_atl AL121949 26.8000 -56.3000 TS 40 0 2 55
1949276N24303 1949 89 NA NA NOT_NAMED 1949-10-03 21:00:00 TS 26.8150 -56.2074 main 1345 1345 P_____________ AL121949 26.8150 -56.2074 TS 42 0 2 90
1949276N24303 1949 89 NA NA NOT_NAMED 1949-10-04 00:00:00 TS 26.8000 -56.1000 45 hurdat_atl main 1352 1352 O_____________ hurdat_atl AL121949 26.8000 -56.1000 TS 45 0 2 86
1949276N24303 1949 89 NA NA NOT_NAMED 1949-10-04 03:00:00 TS 26.8273 -55.9948 main 1359 1359 P_____________ AL121949 26.8273 -55.9948 TS 45 0 3 69
1949276N24303 1949 89 NA NA NOT_NAMED 1949-10-04 06:00:00 TS 26.9000 -55.8000 45 hurdat_atl main 1382 1382 O_____________ hurdat_atl AL121949 26.9000 -55.8000 TS 45 0 5 70
1949276N24303 1949 89 NA NA NOT_NAMED 1949-10-04 09:00:00 TS 26.9971 -55.4818 main 1411 1411 P_____________ AL121949 26.9971 -55.4818 TS 47 0 8 67
1949276N24303 1949 89 NA NA NOT_NAMED 1949-10-04 12:00:00 TS 27.2000 -55.0000 50 hurdat_atl main 1463 1463 O_____________ hurdat_atl AL121949 27.2000 -55.0000 TS 50 0 11 60
1949276N24303 1949 89 NA NA NOT_NAMED 1949-10-04 15:00:00 TS 27.5622 -54.3751 main 1538 1538 P_____________ AL121949 27.5622 -54.3751 TS 50 0 15 57
1949276N24303 1949 89 NA NA NOT_NAMED 1949-10-04 18:00:00 TS 28.0000 -53.6000 50 hurdat_atl main 1627 1627 O_____________ hurdat_atl AL121949 28.0000 -53.6000 TS 50 0 17 60
1949276N24303 1949 89 NA NA NOT_NAMED 1949-10-04 21:00:00 TS 28.3922 -52.7442 main 1724 1724 P_____________ AL121949 28.3922 -52.7442 TS 50 0 18 63
1949276N24303 1949 89 NA NA NOT_NAMED 1949-10-05 00:00:00 TS 28.8000 -51.8000 50 hurdat_atl main 1820 1820 O_____________ hurdat_atl AL121949 28.8000 -51.8000 TS 50 0 19 63
1949276N24303 1949 89 NA NA NOT_NAMED 1949-10-05 03:00:00 TS 29.2499 -50.7999 main 1925 1903 P_____________ AL121949 29.2499 -50.7999 TS 50 0 20 63
1949276N24303 1949 89 NA NA NOT_NAMED 1949-10-05 06:00:00 TS 29.7000 -49.8000 50 hurdat_atl main 1904 1870 O_____________ hurdat_atl AL121949 29.7000 -49.8000 TS 50 0 19 62
1949276N24303 1949 89 NA NA NOT_NAMED 1949-10-05 09:00:00 TS 30.1445 -48.8626 main 1874 1845 P_____________ AL121949 30.1445 -48.8626 TS 50 0 18 63
1949276N24303 1949 89 NA NA NOT_NAMED 1949-10-05 12:00:00 TS 30.5000 -48.0000 50 hurdat_atl main 1847 1838 O_____________ hurdat_atl AL121949 30.5000 -48.0000 TS 50 0 15 69
1949276N24303 1949 89 NA NA NOT_NAMED 1949-10-05 15:00:00 TS 30.6947 -47.1890 main 1843 1842 P_____________ AL121949 30.6947 -47.1890 TS 50 0 13 77
1949276N24303 1949 89 NA NA NOT_NAMED 1949-10-05 18:00:00 TS 30.8000 -46.5000 50 hurdat_atl main 1850 1847 O_____________ hurdat_atl AL121949 30.8000 -46.5000 TS 50 0 11 80
1949276N24303 1949 89 NA NA NOT_NAMED 1949-10-05 21:00:00 TS 30.8842 -45.9692 main 1853 1851 P_____________ AL121949 30.8842 -45.9692 TS 47 0 9 77
1949276N24303 1949 89 NA NA NOT_NAMED 1949-10-06 00:00:00 TS 31.0000 -45.5000 45 hurdat_atl main 1857 1848 O_____________ hurdat_atl AL121949 31.0000 -45.5000 TS 45 0 9 68
1949276N24303 1949 89 NA NA NOT_NAMED 1949-10-06 03:00:00 TS 31.2270 -44.9799 main 1852 1837 P_____________ AL121949 31.2270 -44.9799 TS 45 0 11 62
1949276N24303 1949 89 NA NA NOT_NAMED 1949-10-06 06:00:00 TS 31.5000 -44.4000 45 hurdat_atl main 1840 1834 O_____________ hurdat_atl AL121949 31.5000 -44.4000 TS 45 0 12 64
1949276N24303 1949 89 NA NA NOT_NAMED 1949-10-06 09:00:00 TS 31.7500 -43.7223 main 1845 1835 P_____________ AL121949 31.7500 -43.7223 TS 45 0 13 67
1949276N24303 1949 89 NA NA NOT_NAMED 1949-10-06 12:00:00 TS 32.0000 -43.0000 45 hurdat_atl main 1842 1838 O_____________ hurdat_atl AL121949 32.0000 -43.0000 TS 45 0 13 67
1949276N24303 1949 89 NA NA NOT_NAMED 1949-10-06 15:00:00 TS 32.2496 -42.2996 main 1850 1841 P_____________ AL121949 32.2496 -42.2996 TS 42 0 13 67
1949276N24303 1949 89 NA NA NOT_NAMED 1949-10-06 18:00:00 TS 32.5000 -41.6000 40 hurdat_atl main 1851 1850 O_____________ hurdat_atl AL121949 32.5000 -41.6000 TS 40 0 13 67
1949276N24303 1949 89 NA NA NOT_NAMED 1949-10-06 21:00:00 TS 32.7496 -40.8996 main 1864 1855 P_____________ AL121949 32.7496 -40.8996 TS 40 0 13 67
1949276N24303 1949 89 NA NA NOT_NAMED 1949-10-07 00:00:00 TS 33.0000 -40.2000 40 hurdat_atl main 1870 1865 O_____________ hurdat_atl AL121949 33.0000 -40.2000 TS 40 0 13 67
1949276N24303 1949 89 NA NA NOT_NAMED 1949-10-07 03:00:00 TS 33.2491 -39.5293 main 1886 1877 P_____________ AL121949 33.2491 -39.5293 TS 37 0 13 67
1949276N24303 1949 89 NA NA NOT_NAMED 1949-10-07 06:00:00 TS 33.5000 -38.8000 35 hurdat_atl main 1896 1896 O_____________ hurdat_atl AL121949 33.5000 -38.8000 TS 35 0 14 70
1949276N24303 1949 89 NA NA NOT_NAMED 1949-10-07 09:00:00 TS 33.7262 -37.9807 main 1921 1918 P_____________ AL121949 33.7262 -37.9807 TS 35 0 16 72
1949276N24303 1949 89 NA NA NOT_NAMED 1949-10-07 12:00:00 ET 34.0000 -37.0000 35 hurdat_atl main 1952 1930 O_____________ hurdat_atl AL121949 34.0000 -37.0000 EX 35 -4 19 70
1949276N24303 1949 89 NA NA NOT_NAMED 1949-10-07 15:00:00 ET 34.3735 -35.8137 main 1921 1829 P_____________ AL121949 34.3735 -35.8137 EX 32 -4 22 69
1949276N24303 1949 89 NA NA NOT_NAMED 1949-10-07 18:00:00 ET 34.8000 -34.5000 30 hurdat_atl main 1821 O_____________ hurdat_atl AL121949 34.8000 -34.5000 EX 30 -4 23 68

IBTrACS Databaseについて

本データベースは、米国NOAAが公開する1842年以降の世界の熱帯低気圧のベストトラックデータアーカイブInternational Best Track Archive for Climate Stewardship (IBTrACS)を、ウェブで閲覧しやすい形式に変換したものです。

最終更新日:2021-11-26